Time;durP1;ratioP1;P1;durP2;ratioP2;P2;SDS_P1;SDS_P2;PMS_P1;PMS_P2;Temp;Humidity;BMP_temperature;BMP_pressure;BME280_temperature;BME280_humidity;BME280_pressure;Samples;Min_cycle;Max_cycle;Signal;HPM_P1;HPM_P2
2022/06/10 00:00:48;;;;;;;0.45;0.20;;;;;;;25.32;39.21;99617.22;5053309;28;20120;-76
2022/06/10 00:03:15;;;;;;;1.90;0.28;;;;;;;25.30;39.30;99619.63;5053444;28;20169;-77
2022/06/10 00:05:44;;;;;;;0.55;0.40;;;;;;;25.27;39.12;99618.41;5070678;28;20048;-77
2022/06/10 00:08:16;;;;;;;0.20;0.20;;;;;;;25.24;39.17;99611.63;5042406;28;20033;-76
2022/06/10 00:10:45;;;;;;;0.40;0.40;;;;;;;25.27;38.90;99614.81;5069554;28;20067;-77
2022/06/10 00:13:13;;;;;;;0.30;0.20;;;;;;;25.27;38.91;99623.22;5071358;28;20132;-77
2022/06/10 00:15:39;;;;;;;0.45;0.22;;;;;;;25.28;39.29;99622.00;5034828;28;20523;-76
2022/06/10 00:18:05;;;;;;;0.35;0.22;;;;;;;25.24;39.19;99613.63;5056311;28;20441;-77
2022/06/10 00:20:32;;;;;;;0.80;0.20;;;;;;;25.27;38.83;99626.00;5071217;28;20489;-77
2022/06/10 00:22:58;;;;;;;0.60;0.40;;;;;;;25.24;38.83;99622.81;5056888;28;20186;-77
2022/06/10 00:25:24;;;;;;;0.50;0.20;;;;;;;25.27;38.86;99618.41;5062791;28;20053;-77
2022/06/10 00:27:50;;;;;;;0.30;0.22;;;;;;;25.22;38.92;99618.81;5064711;28;20049;-77
2022/06/10 00:30:18;;;;;;;1.52;0.30;;;;;;;25.20;38.88;99616.41;5057015;28;20044;-77
2022/06/10 00:32:44;;;;;;;0.40;0.28;;;;;;;25.24;38.90;99610.81;5070828;28;20413;-77
2022/06/10 00:35:10;;;;;;;0.25;0.20;;;;;;;25.24;39.17;99619.22;5070741;28;20508;-77
2022/06/10 00:37:36;;;;;;;0.15;0.15;;;;;;;25.21;38.96;99622.78;5040620;28;20037;-76
2022/06/10 00:40:03;;;;;;;0.43;0.30;;;;;;;25.19;39.22;99626.00;5048770;28;20479;-77
2022/06/10 00:42:28;;;;;;;0.10;0.10;;;;;;;25.22;39.24;99619.63;5040457;28;20052;-77
2022/06/10 00:44:54;;;;;;;0.32;0.20;;;;;;;25.22;38.93;99619.63;5061315;28;20163;-76
2022/06/10 00:47:26;;;;;;;0.50;0.30;;;;;;;25.24;38.83;99622.81;5052416;28;20405;-77
2022/06/10 00:50:28;;;;;;;0.30;0.20;;;;;;;25.23;38.82;99612.81;5071635;28;20052;-77
2022/06/10 00:53:01;;;;;;;0.22;0.20;;;;;;;25.19;39.04;99617.59;5068584;28;20093;-76
2022/06/10 00:55:28;;;;;;;0.82;0.30;;;;;;;25.18;39.13;99618.00;5060903;28;20062;-77
2022/06/10 00:58:00;;;;;;;0.20;0.20;;;;;;;25.19;39.28;99614.81;5041616;28;20135;-77
2022/06/10 01:00:28;;;;;;;0.65;0.30;;;;;;;25.17;39.16;99616.41;5056505;28;20094;-77
2022/06/10 01:02:53;;;;;;;0.52;0.30;;;;;;;25.15;39.34;99614.03;5062513;28;20047;-77
2022/06/10 01:05:23;;;;;;;0.65;0.30;;;;;;;25.15;38.97;99619.63;5046580;28;20056;-77
2022/06/10 01:07:53;;;;;;;0.15;0.15;;;;;;;25.12;39.27;99614.81;5057146;28;20074;-77
2022/06/10 01:10:19;;;;;;;0.17;0.10;;;;;;;25.16;39.34;99626.03;5052404;28;20638;-77
2022/06/10 01:13:01;;;;;;;0.38;0.20;;;;;;;25.15;39.01;99618.81;5069617;28;20123;-76
2022/06/10 01:15:40;;;;;;;0.30;0.20;;;;;;;25.16;39.15;99617.63;5056848;28;20045;-77
2022/06/10 01:18:11;;;;;;;0.68;0.30;;;;;;;25.13;39.25;99615.59;5032204;28;20087;-76
2022/06/10 01:20:51;;;;;;;0.43;0.20;;;;;;;25.12;39.17;99622.41;5063135;28;20484;-77
2022/06/10 01:23:22;;;;;;;0.45;0.30;;;;;;;25.16;39.07;99614.81;5070493;28;20051;-77
2022/06/10 01:26:03;;;;;;;0.55;0.20;;;;;;;25.17;38.97;99622.00;5036939;28;20057;-77
2022/06/10 01:28:50;;;;;;;0.40;0.25;;;;;;;25.15;38.95;99614.03;5040134;28;20109;-77
2022/06/10 01:31:25;;;;;;;0.35;0.30;;;;;;;25.14;39.08;99618.00;5035844;28;20057;-76
2022/06/10 01:33:59;;;;;;;0.30;0.20;;;;;;;25.16;39.16;99626.03;5070277;28;20041;-77
2022/06/10 01:36:46;;;;;;;0.25;0.20;;;;;;;25.11;39.09;99621.59;5069970;28;20082;-77
2022/06/10 01:39:20;;;;;;;0.22;0.20;;;;;;;25.13;39.25;99627.59;5070036;28;20548;-77
2022/06/10 01:42:07;;;;;;;0.25;0.20;;;;;;;25.11;39.24;99624.41;5055112;28;20401;-77
2022/06/10 01:44:44;;;;;;;0.30;0.20;;;;;;;25.10;39.33;99625.59;5049927;28;20044;-77
2022/06/10 01:47:15;;;;;;;0.38;0.30;;;;;;;25.11;39.28;99623.59;5051063;28;20136;-77
2022/06/10 01:49:54;;;;;;;0.30;0.20;;;;;;;25.06;39.20;99629.59;5069547;28;20048;-77
2022/06/10 01:52:24;;;;;;;0.32;0.20;;;;;;;25.07;39.18;99628.38;5049562;28;20057;-77
2022/06/10 01:55:18;;;;;;;0.38;0.30;;;;;;;25.07;39.38;99620.78;5055380;28;20096;-72
2022/06/10 01:57:52;;;;;;;0.38;0.25;;;;;;;25.03;39.29;99619.97;5069638;28;20048;-72
2022/06/10 02:00:21;;;;;;;0.20;0.20;;;;;;;25.06;39.31;99621.19;5038487;28;20273;-72
2022/06/10 02:02:56;;;;;;;0.30;0.20;;;;;;;25.06;39.27;99624.00;5069465;28;20048;-72
2022/06/10 02:05:24;;;;;;;0.38;0.20;;;;;;;25.04;39.33;99624.41;5051426;28;20068;-72
2022/06/10 02:07:58;;;;;;;0.30;0.20;;;;;;;25.02;39.06;99620.38;5051653;28;20037;-71
2022/06/10 02:10:29;;;;;;;0.60;0.30;;;;;;;25.05;38.84;99619.59;5069600;28;20511;-72
2022/06/10 02:13:04;;;;;;;0.20;0.20;;;;;;;25.06;39.13;99624.00;5069590;28;20041;-72
2022/06/10 02:15:34;;;;;;;0.32;0.13;;;;;;;25.05;39.13;99626.00;5047994;28;20121;-77
2022/06/10 02:18:09;;;;;;;0.15;0.15;;;;;;;25.04;39.12;99630.00;5069207;28;20111;-77
2022/06/10 02:20:37;;;;;;;0.25;0.15;;;;;;;25.03;39.19;99633.97;5051364;28;20072;-77
2022/06/10 02:23:05;;;;;;;0.73;0.20;;;;;;;25.06;39.28;99635.19;5064441;28;20045;-77
2022/06/10 02:25:53;;;;;;;0.10;0.10;;;;;;;25.07;39.26;99642.38;5060425;28;20094;-77
2022/06/10 02:28:26;;;;;;;0.57;0.20;;;;;;;25.02;39.06;99631.56;5062689;28;20048;-76
2022/06/10 02:31:02;;;;;;;0.30;0.28;;;;;;;24.99;39.19;99633.16;5062584;28;20044;-72
2022/06/10 02:33:27;;;;;;;0.20;0.20;;;;;;;25.06;39.10;99643.59;5062508;28;20056;-72
2022/06/10 02:36:01;;;;;;;0.90;0.30;;;;;;;25.04;39.08;99646.78;5061984;28;20041;-72
2022/06/10 02:39:01;;;;;;;0.30;0.30;;;;;;;25.03;39.23;99639.56;5069173;28;20443;-72
2022/06/10 02:41:48;;;;;;;0.45;0.20;;;;;;;24.99;39.07;99647.16;5069136;28;20492;-72
2022/06/10 02:44:29;;;;;;;0.20;0.20;;;;;;;24.98;39.47;99635.16;5051072;28;20113;-72
2022/06/10 02:47:18;;;;;;;0.20;0.20;;;;;;;25.02;39.31;99651.16;5045332;28;20048;-72
2022/06/10 02:49:43;;;;;;;0.77;0.25;;;;;;;24.95;39.24;99643.56;5063809;28;20048;-72
2022/06/10 02:52:15;;;;;;;0.45;0.20;;;;;;;24.99;39.19;99647.94;5070226;28;20105;-72
2022/06/10 02:54:43;;;;;;;0.30;0.13;;;;;;;25.02;39.43;99645.56;5054705;28;20037;-72
2022/06/10 02:57:14;;;;;;;0.40;0.28;;;;;;;25.02;39.32;99649.16;5054305;28;20032;-72
2022/06/10 03:02:53;;;;;;;0.35;0.30;;;;;;;25.01;39.19;99652.38;5065135;28;20148;-72
2022/06/10 03:05:40;;;;;;;0.15;0.15;;;;;;;25.01;39.11;99646.78;5066211;28;20040;-72
2022/06/10 03:08:25;;;;;;;0.35;0.20;;;;;;;25.00;39.17;99651.53;5044170;28;20055;-72
2022/06/10 03:10:53;;;;;;;1.92;0.10;;;;;;;25.03;39.26;99656.38;5056800;28;20037;-72
2022/06/10 03:13:41;;;;;;;0.82;0.30;;;;;;;24.98;39.43;99656.75;5072288;28;20102;-72
2022/06/10 03:16:19;;;;;;;0.50;0.22;;;;;;;24.97;39.43;99669.94;5054476;28;20053;-72
2022/06/10 03:19:00;;;;;;;0.30;0.20;;;;;;;24.96;39.44;99662.75;5063789;28;20091;-77
2022/06/10 03:21:29;;;;;;;0.13;0.13;;;;;;;25.01;39.29;99669.97;5072015;28;20044;-77
2022/06/10 03:23:58;;;;;;;0.45;0.20;;;;;;;25.04;39.03;99663.59;5072164;28;20059;-77
2022/06/10 03:26:51;;;;;;;0.13;0.10;;;;;;;24.97;38.94;99661.53;5057895;28;20054;-77
2022/06/10 03:29:56;;;;;;;0.38;0.30;;;;;;;24.97;39.10;99664.34;5070612;28;20080;-77
2022/06/10 03:32:41;;;;;;;0.20;0.20;;;;;;;24.96;38.97;99664.75;5052769;28;20628;-77
2022/06/10 03:35:15;;;;;;;0.28;0.20;;;;;;;24.99;39.19;99672.34;5058199;28;20127;-77
2022/06/10 03:37:41;;;;;;;0.30;0.30;;;;;;;24.97;39.26;99671.94;5053229;28;20114;-76
2022/06/10 03:40:18;;;;;;;0.30;0.20;;;;;;;24.95;39.14;99677.94;5071510;28;20040;-77
2022/06/10 03:42:49;;;;;;;0.30;0.22;;;;;;;24.97;39.03;99689.53;5040641;28;20098;-77
2022/06/10 03:45:18;;;;;;;0.20;0.17;;;;;;;24.96;39.01;99687.13;5039892;28;20105;-77
2022/06/10 03:47:43;;;;;;;0.40;0.25;;;;;;;24.96;38.94;99689.94;5070424;28;20208;-77
2022/06/10 03:50:15;;;;;;;0.20;0.20;;;;;;;24.93;38.85;99687.91;5053301;28;20122;-77
2022/06/10 03:52:43;;;;;;;0.63;0.40;;;;;;;24.95;39.00;99693.94;5043847;28;20048;-77
2022/06/10 03:55:09;;;;;;;0.15;0.15;;;;;;;24.93;38.97;99690.72;5039452;28;20087;-77
2022/06/10 03:57:35;;;;;;;0.20;0.20;;;;;;;24.92;38.83;99689.91;5071802;28;20084;-77
2022/06/10 04:00:05;;;;;;;0.65;0.20;;;;;;;24.99;38.93;99694.72;5056336;28;20048;-77
2022/06/10 04:02:30;;;;;;;0.25;0.20;;;;;;;24.95;38.97;99691.13;5052714;28;20088;-77
2022/06/10 04:04:55;;;;;;;0.25;0.20;;;;;;;24.93;39.03;99688.72;5070855;28;20075;-77
2022/06/10 04:07:21;;;;;;;0.30;0.20;;;;;;;24.97;38.90;99691.53;5070987;28;20447;-77
2022/06/10 04:09:47;;;;;;;0.20;0.20;;;;;;;24.93;39.08;99696.31;5059629;28;20045;-77
2022/06/10 04:12:15;;;;;;;0.25;0.20;;;;;;;24.94;39.17;99695.13;5051060;28;20044;-77
2022/06/10 04:14:41;;;;;;;0.13;0.13;;;;;;;24.97;39.11;99702.72;5071310;28;20102;-77
2022/06/10 04:17:09;;;;;;;0.52;0.30;;;;;;;24.96;38.86;99701.13;5053010;28;20082;-77
2022/06/10 04:19:35;;;;;;;0.17;0.17;;;;;;;24.94;39.18;99704.31;5070791;28;20072;-76
2022/06/10 04:22:00;;;;;;;0.30;0.30;;;;;;;24.95;39.27;99694.72;5052581;28;20410;-77
2022/06/10 04:24:26;;;;;;;0.28;0.28;;;;;;;24.95;39.13;99688.34;5071068;28;20045;-77
2022/06/10 04:26:52;;;;;;;0.20;0.20;;;;;;;24.92;39.61;99689.09;5062569;28;20041;-77
2022/06/10 04:29:17;;;;;;;0.20;0.20;;;;;;;24.90;39.28;99697.09;5065676;28;20063;-77
2022/06/10 04:31:43;;;;;;;0.32;0.22;;;;;;;24.90;39.56;99703.50;5064633;28;20255;-77
2022/06/10 04:34:08;;;;;;;0.20;0.20;;;;;;;24.96;39.34;99709.53;5063429;28;20041;-77
2022/06/10 04:36:34;;;;;;;0.28;0.20;;;;;;;24.93;39.44;99718.69;5056751;28;20040;-77
2022/06/10 04:39:00;;;;;;;0.60;0.35;;;;;;;24.91;39.54;99716.28;5070464;28;20033;-77
2022/06/10 04:41:25;;;;;;;0.63;0.30;;;;;;;24.89;39.17;99718.69;5056829;28;20080;-77
2022/06/10 04:43:51;;;;;;;0.40;0.20;;;;;;;24.91;39.33;99710.69;5062535;28;20048;-77
2022/06/10 04:46:41;;;;;;;0.30;0.30;;;;;;;24.93;39.08;99713.09;5065152;28;20040;-77
2022/06/10 04:49:08;;;;;;;0.20;0.20;;;;;;;24.97;39.32;99722.31;5060940;28;20047;-77
2022/06/10 04:51:35;;;;;;;0.60;0.38;;;;;;;24.94;39.06;99715.53;5037605;28;20057;-77
2022/06/10 04:54:01;;;;;;;0.25;0.15;;;;;;;24.92;39.15;99714.28;5052642;28;20408;-77
2022/06/10 04:56:26;;;;;;;0.30;0.20;;;;;;;24.93;39.20;99725.13;5070577;28;20054;-77
2022/06/10 04:58:52;;;;;;;0.20;0.20;;;;;;;24.97;39.09;99730.72;5065630;28;20036;-77
2022/06/10 05:01:17;;;;;;;0.30;0.28;;;;;;;24.93;39.10;99730.72;5058421;28;20075;-77
2022/06/10 05:03:43;;;;;;;0.20;0.20;;;;;;;24.92;39.11;99728.28;5067948;28;20573;-77
2022/06/10 05:06:09;;;;;;;0.35;0.20;;;;;;;24.92;39.33;99725.50;5070570;28;20106;-72
2022/06/10 05:08:34;;;;;;;0.68;0.35;;;;;;;24.96;39.11;99727.09;5056407;28;20091;-72
2022/06/10 05:11:00;;;;;;;0.30;0.20;;;;;;;24.97;38.98;99731.50;5045053;28;20080;-72
2022/06/10 05:13:25;;;;;;;0.68;0.30;;;;;;;24.96;38.89;99715.13;5070422;28;20072;-72
2022/06/10 05:15:51;;;;;;;0.38;0.28;;;;;;;25.01;38.73;99725.13;5038838;28;20424;-72
2022/06/10 05:18:21;;;;;;;0.10;0.10;;;;;;;25.02;38.72;99726.72;5059865;28;20063;-72
2022/06/10 05:20:47;;;;;;;0.30;0.30;;;;;;;25.05;39.04;99728.75;5052194;28;20040;-71
2022/06/10 05:23:16;;;;;;;0.20;0.20;;;;;;;25.04;39.06;99724.34;5070080;28;20045;-71
2022/06/10 05:25:42;;;;;;;0.20;0.20;;;;;;;25.05;38.88;99732.34;5052346;28;20041;-71
2022/06/10 05:28:09;;;;;;;0.30;0.20;;;;;;;25.04;38.90;99719.56;5056422;28;20041;-71
2022/06/10 05:30:35;;;;;;;0.35;0.20;;;;;;;25.10;38.96;99720.78;5070005;28;20040;-72
2022/06/10 05:33:02;;;;;;;0.30;0.30;;;;;;;25.08;38.85;99725.97;5055904;28;20037;-72
2022/06/10 05:35:29;;;;;;;0.40;0.30;;;;;;;25.09;39.04;99721.97;5069975;28;20501;-72
2022/06/10 05:37:54;;;;;;;0.35;0.30;;;;;;;25.05;39.12;99721.16;5055717;28;20191;-71
2022/06/10 05:40:23;;;;;;;0.32;0.30;;;;;;;25.06;39.04;99728.34;5069969;28;20561;-72
2022/06/10 05:42:49;;;;;;;0.43;0.30;;;;;;;25.12;39.07;99728.78;5050226;28;20049;-71
2022/06/10 05:45:17;;;;;;;0.47;0.30;;;;;;;25.16;39.17;99727.59;5051484;28;20098;-72
2022/06/10 05:47:44;;;;;;;0.20;0.20;;;;;;;25.13;38.78;99725.56;5070181;28;20109;-72
2022/06/10 05:50:16;;;;;;;0.45;0.30;;;;;;;25.19;38.81;99723.19;5068508;28;20029;-72
2022/06/10 05:52:42;;;;;;;0.85;0.40;;;;;;;25.20;38.76;99721.97;5051516;28;20048;-72
2022/06/10 05:55:09;;;;;;;0.50;0.30;;;;;;;25.22;39.16;99723.22;5055402;28;20410;-72
2022/06/10 05:57:34;;;;;;;0.47;0.32;;;;;;;25.27;39.06;99718.41;5043827;28;20052;-72
2022/06/10 06:00:00;;;;;;;0.20;0.20;;;;;;;25.25;38.92;99725.19;5069369;28;20071;-72
2022/06/10 06:02:26;;;;;;;0.82;0.22;;;;;;;25.15;39.01;99723.19;5069505;28;20127;-72
2022/06/10 06:04:52;;;;;;;0.32;0.30;;;;;;;25.16;39.45;99730.41;5051659;28;20045;-72
2022/06/10 06:07:24;;;;;;;0.50;0.30;;;;;;;25.19;39.23;99726.00;5069180;28;20119;-72
2022/06/10 06:09:50;;;;;;;0.32;0.20;;;;;;;25.15;39.30;99719.59;5057356;28;20045;-72
2022/06/10 06:12:15;;;;;;;0.30;0.30;;;;;;;25.16;39.26;99718.41;5067527;28;20060;-71
2022/06/10 06:14:41;;;;;;;0.43;0.30;;;;;;;25.14;39.22;99718.78;5069578;28;20051;-72
2022/06/10 06:17:06;;;;;;;1.02;0.40;;;;;;;25.14;39.50;99706.78;5035483;28;20033;-71
2022/06/10 06:19:34;;;;;;;0.40;0.30;;;;;;;25.19;39.45;99698.78;5069138;28;20109;-72
2022/06/10 06:22:00;;;;;;;0.68;0.50;;;;;;;25.18;39.18;99708.41;5040716;28;20156;-72
2022/06/10 06:24:26;;;;;;;0.63;0.40;;;;;;;25.17;39.28;99712.38;5065462;28;20135;-71
2022/06/10 06:26:51;;;;;;;0.73;0.40;;;;;;;25.23;39.15;99704.41;5070976;28;20044;-72
2022/06/10 06:29:19;;;;;;;0.40;0.38;;;;;;;25.24;39.51;99712.41;5054896;28;20053;-72
2022/06/10 06:31:44;;;;;;;0.40;0.30;;;;;;;25.27;39.33;99705.19;5066229;28;20125;-76
2022/06/10 06:34:10;;;;;;;0.50;0.38;;;;;;;25.24;39.32;99698.41;5035036;28;20079;-76
2022/06/10 06:36:44;;;;;;;0.70;0.40;;;;;;;25.21;39.54;99693.59;5071257;28;20040;-76
2022/06/10 06:39:10;;;;;;;0.82;0.40;;;;;;;25.18;39.13;99686.00;5053243;28;20049;-76
2022/06/10 06:41:35;;;;;;;0.77;0.45;;;;;;;25.23;39.36;99694.00;5051088;28;20136;-79
2022/06/10 06:44:04;;;;;;;1.10;0.45;;;;;;;25.24;39.75;99690.00;5062417;28;20375;-80
2022/06/10 06:46:32;;;;;;;0.82;0.40;;;;;;;25.28;39.37;99695.59;5037913;28;20045;-77
2022/06/10 06:48:58;;;;;;;3.78;0.52;;;;;;;25.30;39.64;99690.41;5062606;28;20070;-73
2022/06/10 06:51:23;;;;;;;5.15;0.60;;;;;;;25.45;40.25;99694.03;5051708;28;20041;-70
2022/06/10 06:53:49;;;;;;;2.50;0.80;;;;;;;25.46;39.43;99699.22;5065789;28;20036;-70
2022/06/10 06:56:14;;;;;;;6.80;3.70;;;;;;;25.50;38.96;99696.41;5058934;28;20044;-70
2022/06/10 06:58:40;;;;;;;6.00;2.40;;;;;;;25.48;38.58;99694.00;5050621;28;20190;-70
2022/06/10 07:01:05;;;;;;;5.32;1.58;;;;;;;25.44;38.98;99698.03;5033062;28;20053;-70
2022/06/10 07:03:30;;;;;;;3.13;1.40;;;;;;;25.46;38.93;99709.63;5040546;28;20195;-70
2022/06/10 07:05:56;;;;;;;3.88;1.17;;;;;;;25.42;38.41;99700.41;5063744;28;20549;-70
2022/06/10 07:08:25;;;;;;;3.72;1.30;;;;;;;25.33;39.06;99702.81;5047275;28;20087;-70
2022/06/10 07:10:50;;;;;;;3.75;1.30;;;;;;;25.34;39.27;99699.59;5047753;28;20041;-70
2022/06/10 07:13:16;;;;;;;3.72;1.00;;;;;;;25.42;39.03;99700.41;5064780;28;20069;-70
2022/06/10 07:15:43;;;;;;;5.70;1.38;;;;;;;25.43;38.57;99700.03;5035867;28;20680;-70
2022/06/10 07:18:08;;;;;;;3.55;1.30;;;;;;;25.26;38.28;99698.00;5065938;28;20040;-70
2022/06/10 07:20:36;;;;;;;4.00;1.15;;;;;;;25.16;38.65;99696.78;5059058;28;20048;-70
2022/06/10 07:23:02;;;;;;;6.75;1.40;;;;;;;25.17;38.81;99690.00;5048068;28;20056;-70
2022/06/10 07:25:30;;;;;;;5.57;1.27;;;;;;;25.30;38.67;99690.41;5063995;28;20079;-69
2022/06/10 07:27:56;;;;;;;3.80;0.90;;;;;;;25.33;38.95;99689.59;5056047;28;20377;-70
2022/06/10 07:30:25;;;;;;;2.08;0.85;;;;;;;25.43;38.29;99686.03;5065875;28;20044;-70
2022/06/10 07:32:50;;;;;;;4.00;0.80;;;;;;;25.47;37.90;99694.41;5067032;28;20409;-69
2022/06/10 07:35:18;;;;;;;3.30;1.10;;;;;;;25.46;38.28;99692.81;5046268;28;20655;-70
2022/06/10 07:37:44;;;;;;;3.47;1.20;;;;;;;25.44;38.01;99693.22;5044526;28;20087;-73
2022/06/10 07:41:56;;;;;;;2.20;0.80;;;;;;;25.38;37.70;99692.03;5045978;28;20508;-70
2022/06/10 07:43:01;;;;;;;4.13;1.10;;;;;;;25.35;38.00;99689.19;5049876;28;20068;-68
2022/06/10 07:45:28;;;;;;;3.00;0.90;;;;;;;25.40;38.43;99684.00;5035572;28;20075;-68
2022/06/10 07:47:53;;;;;;;3.20;0.90;;;;;;;25.49;38.45;99680.81;5059955;28;20469;-67
2022/06/10 07:50:21;;;;;;;3.13;0.80;;;;;;;25.56;38.24;99683.59;5057414;28;20627;-76
2022/06/10 07:52:47;;;;;;;2.17;0.82;;;;;;;25.62;38.07;99687.59;5069688;28;20056;-73
2022/06/10 07:55:13;;;;;;;3.22;0.98;;;;;;;25.65;37.63;99681.22;5058859;28;20049;-73
2022/06/10 07:57:38;;;;;;;3.22;1.23;;;;;;;25.72;37.80;99674.84;5071028;28;20059;-73
2022/06/10 08:00:04;;;;;;;6.97;2.00;;;;;;;25.78;38.14;99687.22;5050058;28;20037;-73
2022/06/10 08:02:29;;;;;;;3.13;1.60;;;;;;;25.78;37.87;99687.22;5068675;28;20041;-74
2022/06/10 08:04:55;;;;;;;5.32;1.50;;;;;;;25.80;38.01;99687.63;5052266;28;20084;-73
2022/06/10 08:07:20;;;;;;;4.63;1.67;;;;;;;25.82;37.74;99687.22;5056397;28;20025;-68
2022/06/10 08:09:46;;;;;;;3.13;1.23;;;;;;;25.86;38.00;99685.19;5039608;28;20381;-68
2022/06/10 08:12:11;;;;;;;5.53;1.40;;;;;;;25.86;37.85;99682.41;5061122;28;20057;-74
2022/06/10 08:14:37;;;;;;;3.25;1.10;;;;;;;25.88;37.84;99683.63;5062891;28;20159;-74
2022/06/10 08:17:06;;;;;;;4.90;1.05;;;;;;;25.92;37.50;99678.00;5067134;28;20051;-74
2022/06/10 08:19:32;;;;;;;5.53;1.27;;;;;;;25.95;37.40;99675.19;5061605;28;20051;-74
2022/06/10 08:24:42;;;;;;;3.92;1.30;;;;;;;25.96;37.68;99673.19;5048902;28;20162;-76
2022/06/10 08:27:07;;;;;;;3.22;0.93;;;;;;;25.98;37.42;99667.97;5057238;28;20496;-74
2022/06/10 08:29:33;;;;;;;2.30;0.80;;;;;;;26.00;37.42;99669.19;5055166;28;20056;-76
2022/06/10 08:31:58;;;;;;;2.97;1.00;;;;;;;26.01;37.78;99664.38;5064981;28;20044;-76
2022/06/10 08:34:24;;;;;;;5.28;1.50;;;;;;;26.05;37.64;99670.75;5069022;28;20043;-69
2022/06/10 08:36:49;;;;;;;6.20;1.20;;;;;;;26.01;37.74;99667.19;5061156;28;20055;-68
2022/06/10 08:39:15;;;;;;;4.20;1.02;;;;;;;26.10;37.38;99669.56;5058323;28;20439;-69
2022/06/10 08:42:22;;;;;;;2.85;0.98;;;;;;;26.08;37.48;99667.16;5057324;28;20235;-69
2022/06/10 08:44:53;;;;;;;4.65;1.17;;;;;;;26.14;37.51;99665.50;5009907;28;20534;-69
2022/06/10 08:47:32;;;;;;;2.35;0.90;;;;;;;26.14;37.09;99664.72;5033747;28;20040;-69
2022/06/10 08:50:05;;;;;;;3.47;1.08;;;;;;;26.12;37.18;99665.13;5055522;28;20052;-69
2022/06/10 08:52:52;;;;;;;3.35;1.10;;;;;;;26.15;36.80;99660.69;5048462;28;20085;-68
2022/06/10 08:55:56;;;;;;;2.83;1.00;;;;;;;26.16;37.00;99662.31;5060617;28;20053;-71
2022/06/10 08:58:28;;;;;;;2.28;0.90;;;;;;;26.16;36.77;99660.31;5056256;28;20425;-70
2022/06/10 09:00:58;;;;;;;6.10;2.53;;;;;;;26.18;36.27;99660.72;5038722;28;20094;-70
2022/06/10 09:03:38;;;;;;;7.68;1.60;;;;;;;26.15;35.80;99661.53;5065327;28;20134;-68
2022/06/10 09:06:12;;;;;;;4.40;1.38;;;;;;;26.05;35.76;99665.94;5044622;28;20044;-69
2022/06/10 09:08:42;;;;;;;5.65;1.38;;;;;;;26.00;35.10;99659.94;5044148;28;20148;-68
2022/06/10 09:11:35;;;;;;;4.20;1.13;;;;;;;25.94;35.47;99672.78;5057118;28;20045;-68
2022/06/10 09:14:22;;;;;;;2.80;1.00;;;;;;;25.97;36.20;99669.19;5065740;28;20044;-69
2022/06/10 09:17:20;;;;;;;6.43;1.15;;;;;;;26.11;36.25;99671.16;5061842;28;20040;-69
2022/06/10 09:19:58;;;;;;;3.17;0.82;;;;;;;26.16;36.39;99677.16;5036359;28;20048;-69
2022/06/10 09:22:55;;;;;;;2.97;1.00;;;;;;;26.20;36.24;99663.91;5049097;28;20560;-75
2022/06/10 09:25:46;;;;;;;2.35;0.85;;;;;;;26.26;36.39;99679.09;5053261;28;20040;-75
2022/06/10 09:28:12;;;;;;;2.72;1.00;;;;;;;26.26;35.97;99665.06;5059348;28;20045;-74
2022/06/10 09:30:43;;;;;;;2.65;0.90;;;;;;;26.24;36.47;99659.09;5061847;28;20048;-74
2022/06/10 09:33:21;;;;;;;1.55;0.60;;;;;;;26.25;36.07;99657.88;5057769;28;20063;-74
2022/06/10 09:35:59;;;;;;;4.28;1.10;;;;;;;26.29;36.30;99649.44;5054793;28;20440;-75
2022/06/10 09:39:01;;;;;;;4.78;0.95;;;;;;;26.28;36.19;99653.44;5061571;28;20041;-78
2022/06/10 09:41:33;;;;;;;1.98;0.50;;;;;;;26.31;36.37;99659.06;5044373;28;20072;-78
2022/06/10 09:44:24;;;;;;;4.90;0.70;;;;;;;26.33;36.18;99648.22;5065881;28;20105;-78
2022/06/10 09:47:23;;;;;;;2.40;0.80;;;;;;;26.36;36.31;99646.59;5058016;28;20048;-78
2022/06/10 09:50:04;;;;;;;2.65;0.77;;;;;;;26.37;36.19;99647.44;5060070;28;20053;-80
2022/06/10 09:52:39;;;;;;;2.65;0.90;;;;;;;26.41;36.31;99649.03;5068140;28;20037;-80
2022/06/10 09:55:24;;;;;;;1.67;0.90;;;;;;;26.51;36.45;99650.19;5060683;28;20055;-70
2022/06/10 09:58:17;;;;;;;3.40;0.90;;;;;;;26.52;36.38;99651.78;5061030;28;20037;-71
2022/06/10 10:00:57;;;;;;;3.28;0.77;;;;;;;26.54;36.12;99652.19;5050378;28;20315;-75
2022/06/10 10:03:41;;;;;;;2.72;0.90;;;;;;;26.54;36.24;99647.34;5057116;28;20049;-76
2022/06/10 10:06:30;;;;;;;2.05;0.70;;;;;;;26.58;35.94;99655.78;5038027;28;20094;-83
2022/06/10 10:09:26;;;;;;;2.58;0.80;;;;;;;26.54;36.15;99647.34;5059764;28;20563;-77
2022/06/10 10:12:14;;;;;;;4.43;1.15;;;;;;;26.50;35.23;99649.38;5060047;28;20190;-76
2022/06/10 10:15:13;;;;;;;3.30;0.90;;;;;;;26.51;35.80;99650.19;5052371;28;20044;-75
2022/06/10 10:18:18;;;;;;;2.20;0.80;;;;;;;26.46;35.08;99651.41;5054692;28;20040;-74
2022/06/10 10:21:10;;;;;;;5.10;1.10;;;;;;;26.44;35.72;99647.44;5060245;28;20110;-75
2022/06/10 10:23:40;;;;;;;3.40;1.70;;;;;;;26.45;35.37;99641.41;5062461;28;20423;-73
2022/06/10 10:26:19;;;;;;;4.00;1.63;;;;;;;26.47;35.94;99644.59;5063445;28;20056;-74
2022/06/10 10:28:48;;;;;;;3.35;1.13;;;;;;;26.52;35.77;99643.38;5062705;28;20036;-74
2022/06/10 10:31:27;;;;;;;3.42;1.48;;;;;;;26.50;35.25;99635.34;5043570;28;20440;-74
2022/06/10 10:33:53;;;;;;;2.08;0.88;;;;;;;26.42;35.28;99644.22;5063466;28;20040;-67
2022/06/10 10:36:28;;;;;;;2.90;1.10;;;;;;;26.34;35.08;99638.59;5047236;28;20041;-68
2022/06/10 10:38:54;;;;;;;2.72;1.00;;;;;;;26.31;34.87;99633.03;5063041;28;20133;-68
2022/06/10 10:41:29;;;;;;;5.25;1.30;;;;;;;26.26;35.32;99639.84;5060201;28;20049;-68
2022/06/10 10:44:03;;;;;;;5.30;1.02;;;;;;;26.21;35.01;99643.06;5060198;28;20039;-68
2022/06/10 10:46:34;;;;;;;3.40;1.05;;;;;;;26.11;35.29;99645.91;5059296;28;20044;-68
2022/06/10 10:49:04;;;;;;;3.13;1.00;;;;;;;26.01;35.60;99641.94;5049944;28;20056;-68
2022/06/10 10:51:40;;;;;;;3.88;1.33;;;;;;;26.09;36.00;99640.72;5058498;28;20055;-68
2022/06/10 10:54:16;;;;;;;3.80;0.93;;;;;;;26.23;36.24;99643.47;5071172;28;20156;-67
2022/06/10 10:56:47;;;;;;;2.88;0.90;;;;;;;26.33;35.96;99637.00;5056876;28;20120;-67
2022/06/10 10:59:35;;;;;;;4.80;0.93;;;;;;;26.40;36.25;99641.03;5062459;28;20044;-67
2022/06/10 11:02:23;;;;;;;2.22;0.73;;;;;;;26.45;36.38;99637.81;5061264;28;20048;-68
2022/06/10 11:04:48;;;;;;;2.88;0.70;;;;;;;26.55;36.02;99642.53;5063865;28;20052;-68
2022/06/10 11:07:15;;;;;;;1.90;0.70;;;;;;;26.58;36.31;99631.31;5049963;28;20036;-68
2022/06/10 11:09:55;;;;;;;1.80;0.63;;;;;;;26.59;36.28;99624.50;5059470;28;20101;-68
2022/06/10 11:12:25;;;;;;;1.67;0.70;;;;;;;26.65;36.51;99624.88;5065142;28;20535;-68
2022/06/10 11:15:06;;;;;;;2.72;0.80;;;;;;;26.66;36.10;99625.66;5057217;28;20563;-68
2022/06/10 11:17:35;;;;;;;2.75;0.50;;;;;;;26.68;36.50;99614.81;5061887;28;20424;-68
2022/06/10 11:20:27;;;;;;;2.08;0.70;;;;;;;26.69;36.47;99614.41;5068364;28;20033;-68
2022/06/10 11:23:18;;;;;;;2.42;0.60;;;;;;;26.76;36.82;99614.38;5067560;28;20097;-75
2022/06/10 11:25:45;;;;;;;1.98;0.65;;;;;;;26.83;36.79;99610.72;5067434;28;20416;-72
2022/06/10 11:28:21;;;;;;;1.05;0.50;;;;;;;26.84;36.72;99598.28;5062063;28;20041;-74
2022/06/10 11:30:51;;;;;;;1.73;0.43;;;;;;;26.86;36.84;99599.47;5053833;28;20052;-75
2022/06/10 11:33:23;;;;;;;0.50;0.40;;;;;;;26.93;36.76;99601.41;5035517;28;20045;-75
2022/06/10 11:36:02;;;;;;;1.48;0.60;;;;;;;26.93;36.79;99590.19;5057092;28;20063;-75
2022/06/10 11:38:31;;;;;;;1.17;0.50;;;;;;;26.99;36.61;99593.34;5049180;28;20037;-73
2022/06/10 11:41:00;;;;;;;0.95;0.40;;;;;;;27.02;36.82;99595.34;5061396;28;20072;-73
2022/06/10 11:43:38;;;;;;;1.17;0.40;;;;;;;27.03;36.85;99585.72;5051966;28;20515;-75
2022/06/10 11:46:21;;;;;;;1.77;0.60;;;;;;;27.08;36.72;99590.94;5057895;28;20063;-71
2022/06/10 11:49:32;;;;;;;1.38;0.60;;;;;;;27.15;37.14;99586.03;5041803;28;20444;-69
2022/06/10 11:52:13;;;;;;;1.27;0.38;;;;;;;27.20;36.97;99576.34;4988246;28;20053;-70
2022/06/10 11:54:51;;;;;;;1.80;0.52;;;;;;;27.24;36.79;99563.09;4996865;28;20628;-73
2022/06/10 12:00:22;;;;;;;2.45;0.50;;;;;;;27.30;36.92;99563.44;4984173;28;21124;-71
2022/06/10 12:02:53;;;;;;;4.27;0.53;;;;;;;27.35;36.94;99560.97;4971786;28;20541;-73
2022/06/10 12:05:30;;;;;;;0.65;0.30;;;;;;;27.32;37.06;99544.97;4999324;28;20525;-71
2022/06/10 12:08:17;;;;;;;1.77;0.40;;;;;;;27.26;36.85;99548.63;4964971;28;20039;-76